Terminal Aerodrome Forecast
Issued by NWS

Home | Current Version | Previous Version | Text Only | Print | Product List | Glossary On
Versions: 1 2 3 4 5 6 7 8 9 10 11 12 13
000
FTUS45 KRIW 302334
TAFRKS
TAF
KRKS 302334Z 0100/0124 27011KT P6SM VCSH SCT060 BKN080
     FM010100 VRB06KT P6SM FEW070
     FM010900 VRB04KT P6SM VCFG FEW005
     FM011500 23007KT P6SM FEW060
     FM012100 24007G14KT P6SM VCSH SCT060=

USA.gov is the U.S. government's official web portal to all federal, state and local government web resources and services.